aviador You're here:

MMTP Decoded Metar

TAPACHULA in MEXICO
Report Time2017-11-23 21:45:00
UTC Time2017-11-23 22:14:06
Flight Rules vfr VFR
Wind230° at 04 kt
W.Decomp.*RWY 23: 4.0 kt HW 0.2 kt LCW
W.Rank230° ranks 2
Current wind is below 230° avg. (8.7)
Visibility9999 m
Phenomena:Smoke
Clouds:N/A
Expected CloudBase > 4,000 ft AGL from Temp-Dew spread
CeilingNone
Temp31°C (ISA +16)
Dew Point21°C (55% RH)
Heat Index33.7°C
QNH1009 hPa
Density Alt2,408 ft
Elevation95 ft
Report Wrong Elevation
Raw Report
METAR MMTP 232145Z 23004KT 12SM SKC 31/21 A2981 RMK HZY FU CBS MT LN=

Extra information for MMTP:More info

Metar Taf Metar & Taf Last 4 Metars F.Rules Stats Wind Profile Meteogram Temp Stats Airport Information Weather charts Add Link Nearby VenuesMetar ALERT Operation Metar Decoded Social comments